Time;durP1;ratioP1;P1;durP2;ratioP2;P2;SDS_P1;SDS_P2;PMS_P1;PMS_P2;Temp;Humidity;BMP_temperature;BMP_pressure;BME280_temperature;BME280_humidity;BME280_pressure;Samples;Min_cycle;Max_cycle;Signal;HPM_P1;HPM_P2
2023/05/30 00:01:43;;;;;;;19.55;4.38;;;11.10;99.90;;;;;;4989480;28;20061;-71
2023/05/30 00:04:09;;;;;;;16.00;3.70;;;11.10;99.90;;;;;;4938069;28;207840;-72
2023/05/30 00:06:36;;;;;;;17.95;4.10;;;11.10;99.90;;;;;;5009896;28;20046;-70
2023/05/30 00:09:02;;;;;;;19.50;4.32;;;11.10;99.90;;;;;;4955111;28;206729;-71
2023/05/30 00:11:29;;;;;;;16.52;3.70;;;11.00;99.90;;;;;;5013090;28;20065;-71
2023/05/30 00:13:56;;;;;;;15.63;3.47;;;11.10;99.90;;;;;;4957066;28;211118;-72
2023/05/30 00:16:23;;;;;;;20.60;3.88;;;11.10;99.90;;;;;;5002946;28;20043;-72
2023/05/30 00:18:52;;;;;;;21.25;4.50;;;11.10;99.90;;;;;;4947193;28;208635;-72
2023/05/30 00:21:18;;;;;;;17.10;4.03;;;11.10;99.90;;;;;;5000884;28;20056;-71
2023/05/30 00:23:45;;;;;;;18.48;4.30;;;11.10;99.90;;;;;;4953574;28;230936;-71
2023/05/30 00:26:12;;;;;;;18.02;4.07;;;11.10;99.90;;;;;;5014795;28;20083;-71
2023/05/30 00:28:38;;;;;;;18.75;4.50;;;11.00;99.90;;;;;;4935504;28;206522;-71
2023/05/30 00:31:05;;;;;;;17.05;4.47;;;11.00;99.90;;;;;;5015820;28;20033;-72
2023/05/30 00:33:32;;;;;;;16.20;3.67;;;11.10;99.90;;;;;;4953951;28;209218;-72
2023/05/30 00:35:58;;;;;;;20.27;4.70;;;11.10;99.90;;;;;;5013569;28;20049;-71
2023/05/30 00:38:24;;;;;;;22.67;4.72;;;11.10;99.90;;;;;;4954557;28;209553;-70
2023/05/30 00:40:51;;;;;;;20.75;4.70;;;11.10;99.90;;;;;;4995259;28;20077;-71
2023/05/30 00:43:19;;;;;;;16.67;4.05;;;11.00;99.90;;;;;;4934443;28;211870;-71
2023/05/30 00:45:49;;;;;;;17.02;3.65;;;11.00;99.90;;;;;;5024660;28;20054;-72
2023/05/30 00:48:16;;;;;;;14.80;3.60;;;11.00;99.90;;;;;;4944794;28;218038;-72
2023/05/30 00:50:42;;;;;;;20.95;3.95;;;10.90;99.90;;;;;;4996045;28;20061;-72
2023/05/30 00:53:08;;;;;;;16.67;3.80;;;11.00;99.90;;;;;;4974582;28;247064;-72
2023/05/30 00:55:35;;;;;;;20.65;4.07;;;10.90;99.90;;;;;;5008521;28;20045;-72
2023/05/30 00:58:01;;;;;;;17.73;3.92;;;10.90;99.90;;;;;;4999013;28;202213;-73
2023/05/30 01:00:27;;;;;;;18.27;4.20;;;11.00;99.90;;;;;;4955832;28;234941;-71
2023/05/30 01:02:59;;;;;;;17.77;3.83;;;11.00;99.90;;;;;;4981332;28;20054;-72
2023/05/30 01:05:26;;;;;;;14.18;3.53;;;11.00;99.90;;;;;;4971380;28;101546;-72
2023/05/30 01:07:53;;;;;;;20.45;4.00;;;11.00;99.90;;;;;;5033165;28;20055;-73
2023/05/30 01:10:20;;;;;;;17.55;3.90;;;11.00;99.90;;;;;;4946572;28;207587;-72
2023/05/30 01:13:03;;;;;;;21.58;3.90;;;11.00;99.90;;;;;;4986934;28;20057;-72
2023/05/30 01:15:53;;;;;;;16.65;3.30;;;11.00;99.90;;;;;;4968083;28;204928;-73
2023/05/30 01:18:39;;;;;;;19.95;3.65;;;10.90;99.90;;;;;;4950520;28;210767;-72
2023/05/30 01:21:10;;;;;;;20.48;3.83;;;10.90;99.90;;;;;;5032828;28;20423;-72
2023/05/30 01:24:06;;;;;;;16.10;3.30;;;10.90;99.90;;;;;;4959921;28;217622;-72
2023/05/30 01:26:42;;;;;;;20.80;3.70;;;10.90;99.90;;;;;;4993475;28;20053;-72
2023/05/30 01:29:17;;;;;;;19.42;3.90;;;10.90;99.90;;;;;;4954274;28;207503;-70
2023/05/30 01:31:45;;;;;;;14.27;3.70;;;10.90;99.90;;;;;;5007175;28;20061;-71
2023/05/30 01:34:13;;;;;;;15.02;3.42;;;10.90;99.90;;;;;;4957218;28;207253;-71
2023/05/30 01:36:39;;;;;;;15.45;3.78;;;10.90;99.90;;;;;;4998028;28;20600;-71
2023/05/30 01:39:05;;;;;;;17.17;3.70;;;10.90;99.90;;;;;;4944567;28;206241;-71
2023/05/30 01:42:08;;;;;;;16.58;3.85;;;11.00;99.90;;;;;;5010789;28;20053;-72
2023/05/30 01:44:45;;;;;;;16.35;3.85;;;11.00;99.90;;;;;;4955002;28;209353;-72
2023/05/30 01:47:20;;;;;;;14.85;3.67;;;11.00;99.90;;;;;;4981914;28;20508;-72
2023/05/30 01:49:52;;;;;;;14.88;3.25;;;11.00;99.90;;;;;;4958788;28;206931;-72
2023/05/30 01:52:21;;;;;;;16.08;3.97;;;11.00;99.90;;;;;;5003779;28;20058;-72
2023/05/30 01:54:58;;;;;;;20.65;4.07;;;11.00;99.90;;;;;;4957932;28;215330;-73
2023/05/30 01:57:25;;;;;;;16.42;3.75;;;11.00;99.90;;;;;;4977238;28;20451;-72
2023/05/30 01:59:53;;;;;;;16.45;3.65;;;11.00;99.90;;;;;;4934213;28;209691;-71
2023/05/30 02:02:19;;;;;;;16.45;4.03;;;11.00;99.90;;;;;;4981612;28;20050;-72
2023/05/30 02:04:45;;;;;;;18.65;3.65;;;11.00;99.90;;;;;;4941956;28;206722;-72
2023/05/30 02:07:11;;;;;;;18.67;4.15;;;11.00;99.90;;;;;;4982460;28;20076;-72
2023/05/30 02:09:39;;;;;;;18.52;3.67;;;11.00;99.90;;;;;;4949992;28;209648;-72
2023/05/30 02:12:05;;;;;;;17.50;4.00;;;11.00;99.90;;;;;;4983177;28;20058;-72
2023/05/30 02:14:31;;;;;;;21.08;4.20;;;11.00;99.90;;;;;;4959571;28;209954;-71
2023/05/30 02:16:59;;;;;;;14.57;3.33;;;11.00;99.90;;;;;;4987342;28;20664;-72
2023/05/30 02:19:25;;;;;;;19.80;3.70;;;11.00;99.90;;;;;;4970497;28;208979;-71
2023/05/30 02:21:51;;;;;;;17.50;3.80;;;11.00;99.90;;;;;;4998975;28;20038;-72
2023/05/30 02:24:17;;;;;;;15.23;3.83;;;11.00;99.90;;;;;;4955476;28;207635;-72
2023/05/30 02:26:43;;;;;;;12.98;3.58;;;10.90;99.90;;;;;;4992818;28;20050;-72
2023/05/30 02:29:10;;;;;;;15.23;3.70;;;11.00;99.90;;;;;;4940016;28;209425;-71
2023/05/30 02:31:36;;;;;;;16.33;3.80;;;11.00;99.90;;;;;;5001957;28;20060;-72
2023/05/30 02:34:02;;;;;;;21.13;4.50;;;11.00;99.90;;;;;;4969637;28;207459;-72
2023/05/30 02:36:28;;;;;;;20.67;3.92;;;11.00;99.90;;;;;;4995892;28;20054;-72
2023/05/30 02:38:55;;;;;;;18.73;4.15;;;11.00;99.90;;;;;;4969585;28;209770;-72
2023/05/30 02:41:21;;;;;;;15.77;3.92;;;11.00;99.90;;;;;;4995321;28;20400;-71
2023/05/30 02:43:47;;;;;;;16.42;4.10;;;11.00;99.90;;;;;;4939918;28;209767;-71
2023/05/30 02:46:13;;;;;;;16.20;4.13;;;11.00;99.90;;;;;;4999921;28;20061;-72
2023/05/30 02:48:39;;;;;;;16.05;4.10;;;11.00;99.90;;;;;;4964254;28;210421;-72
2023/05/30 02:51:05;;;;;;;19.35;4.45;;;11.00;99.90;;;;;;4997106;28;20507;-71
2023/05/30 02:53:31;;;;;;;20.13;4.30;;;11.00;99.90;;;;;;4936607;28;212613;-71
2023/05/30 02:55:57;;;;;;;23.30;5.00;;;11.00;99.90;;;;;;4982162;28;20603;-72
2023/05/30 02:58:23;;;;;;;16.95;4.70;;;11.00;99.90;;;;;;4930824;28;211382;-71
2023/05/30 03:00:50;;;;;;;16.90;4.28;;;11.10;99.90;;;;;;5016256;28;20055;-71
2023/05/30 03:03:17;;;;;;;17.77;4.17;;;11.10;99.90;;;;;;4951115;28;208301;-72
2023/05/30 03:05:47;;;;;;;20.88;4.10;;;11.10;99.90;;;;;;4973401;28;20075;-72
2023/05/30 03:08:14;;;;;;;18.10;4.20;;;11.10;99.90;;;;;;4934554;28;207727;-72
2023/05/30 03:10:40;;;;;;;20.10;4.35;;;11.10;99.90;;;;;;5026753;28;20423;-71
2023/05/30 03:13:06;;;;;;;17.55;4.10;;;11.10;99.90;;;;;;4965706;28;207915;-72
2023/05/30 03:15:33;;;;;;;16.58;3.92;;;11.00;99.90;;;;;;4991079;28;20054;-72
2023/05/30 03:17:59;;;;;;;19.05;4.50;;;11.10;99.90;;;;;;4982006;28;21279;-71
2023/05/30 03:20:26;;;;;;;23.60;4.65;;;11.10;99.90;;;;;;4963372;28;205780;-71
2023/05/30 03:22:52;;;;;;;16.77;4.20;;;11.10;99.90;;;;;;5014933;28;20050;-72
2023/05/30 03:25:18;;;;;;;17.65;4.18;;;11.10;99.90;;;;;;4947642;28;213025;-71
2023/05/30 03:27:50;;;;;;;24.25;5.00;;;11.10;99.90;;;;;;5002122;28;20057;-73
2023/05/30 03:30:18;;;;;;;20.33;4.55;;;11.10;99.90;;;;;;4961278;28;209312;-72
2023/05/30 03:32:44;;;;;;;21.08;4.07;;;11.10;99.90;;;;;;4983872;28;20069;-72
2023/05/30 03:35:10;;;;;;;20.05;4.13;;;11.10;99.90;;;;;;4977532;28;207063;-71
2023/05/30 03:37:36;;;;;;;17.15;4.38;;;11.10;99.90;;;;;;5002322;28;20061;-72
2023/05/30 03:40:05;;;;;;;19.98;4.20;;;11.10;99.90;;;;;;4958673;28;209886;-71
2023/05/30 03:42:31;;;;;;;18.95;4.63;;;11.10;99.90;;;;;;4984733;28;20042;-72
2023/05/30 03:44:57;;;;;;;18.15;3.90;;;11.10;99.90;;;;;;4974091;28;210749;-71
2023/05/30 03:47:23;;;;;;;21.42;4.35;;;11.00;99.90;;;;;;5001678;28;20053;-72
2023/05/30 03:49:49;;;;;;;17.83;4.13;;;11.10;99.90;;;;;;4959925;28;212005;-72
2023/05/30 03:52:16;;;;;;;19.08;4.40;;;11.10;99.90;;;;;;4975215;28;20054;-72
2023/05/30 03:54:42;;;;;;;18.38;4.80;;;11.10;99.90;;;;;;4966365;28;205977;-71
2023/05/30 03:57:08;;;;;;;17.35;4.25;;;11.10;99.90;;;;;;5005659;28;20554;-72
2023/05/30 03:59:34;;;;;;;21.42;4.68;;;11.10;99.90;;;;;;4965795;28;220289;-72
2023/05/30 04:02:00;;;;;;;19.30;4.30;;;11.10;99.90;;;;;;5010896;28;20042;-72
2023/05/30 04:04:26;;;;;;;19.30;4.40;;;11.10;99.90;;;;;;4956098;28;212881;-71
2023/05/30 04:06:53;;;;;;;16.95;4.40;;;11.10;99.90;;;;;;5008013;28;20641;-72
2023/05/30 04:09:20;;;;;;;20.02;4.50;;;11.20;99.90;;;;;;4944456;28;207074;-72
2023/05/30 04:11:46;;;;;;;21.85;4.35;;;11.30;99.90;;;;;;4982496;28;20050;-72
2023/05/30 04:14:12;;;;;;;22.40;4.80;;;11.20;99.90;;;;;;4947447;28;215628;-71
2023/05/30 04:16:38;;;;;;;16.50;4.38;;;11.30;99.90;;;;;;5001217;28;20085;-71
2023/05/30 04:19:05;;;;;;;20.65;4.15;;;11.40;99.90;;;;;;4953095;28;210004;-72
2023/05/30 04:21:31;;;;;;;21.40;4.75;;;11.30;99.90;;;;;;4995699;28;20531;-72
2023/05/30 04:23:57;;;;;;;20.40;4.93;;;11.40;99.90;;;;;;4938694;28;217222;-72
2023/05/30 04:26:25;;;;;;;21.73;4.53;;;11.50;99.90;;;;;;4996900;28;20034;-72
2023/05/30 04:28:56;;;;;;;18.92;4.75;;;11.50;99.90;;;;;;4938724;28;208098;-73
2023/05/30 04:31:26;;;;;;;17.25;3.95;;;11.50;99.90;;;;;;5003858;28;20057;-73
2023/05/30 04:33:53;;;;;;;19.00;4.47;;;11.50;99.90;;;;;;4943267;28;209099;-72
2023/05/30 04:36:20;;;;;;;17.73;4.80;;;11.60;99.90;;;;;;5023954;28;20058;-72
2023/05/30 04:38:48;;;;;;;18.15;4.40;;;11.60;99.90;;;;;;4955251;28;221620;-73
2023/05/30 04:41:19;;;;;;;17.75;4.47;;;11.60;99.90;;;;;;5012142;28;20093;-72
2023/05/30 04:43:48;;;;;;;16.58;4.13;;;11.60;99.90;;;;;;4949297;28;211506;-72
2023/05/30 04:46:21;;;;;;;21.08;4.50;;;11.70;99.90;;;;;;5000547;28;20281;-72
2023/05/30 04:48:53;;;;;;;19.33;4.35;;;11.70;99.90;;;;;;4943131;28;206930;-72
2023/05/30 04:51:23;;;;;;;19.88;4.38;;;11.70;99.90;;;;;;5007213;28;20053;-72
2023/05/30 04:53:50;;;;;;;21.43;4.23;;;11.70;99.90;;;;;;4951947;28;207205;-73
2023/05/30 04:56:17;;;;;;;17.48;3.95;;;11.70;99.90;;;;;;4995390;28;20073;-71
2023/05/30 04:58:48;;;;;;;21.80;4.57;;;11.70;99.90;;;;;;4932028;28;207818;-73
2023/05/30 05:01:14;;;;;;;19.67;4.65;;;11.80;99.90;;;;;;5008317;28;20049;-72
2023/05/30 05:03:41;;;;;;;19.13;4.28;;;11.80;99.90;;;;;;4945734;28;211803;-72
2023/05/30 05:06:08;;;;;;;21.77;4.70;;;11.90;99.90;;;;;;5001506;28;20058;-72
2023/05/30 05:08:35;;;;;;;17.60;4.13;;;11.90;99.90;;;;;;4937677;28;209979;-72
2023/05/30 05:11:06;;;;;;;19.90;4.78;;;11.90;99.90;;;;;;5008692;28;20404;-71
2023/05/30 05:13:32;;;;;;;18.17;4.60;;;11.90;99.90;;;;;;4941456;28;210316;-72
2023/05/30 05:16:00;;;;;;;19.48;4.30;;;11.90;99.90;;;;;;5000437;28;20393;-72
2023/05/30 05:18:27;;;;;;;24.52;4.82;;;11.90;99.90;;;;;;4942975;28;218560;-72
2023/05/30 05:20:53;;;;;;;21.17;4.55;;;11.90;99.90;;;;;;4981194;28;20442;-72
2023/05/30 05:23:22;;;;;;;18.83;4.47;;;12.00;99.90;;;;;;4935105;28;210494;-71
2023/05/30 05:25:48;;;;;;;17.60;4.10;;;12.00;99.90;;;;;;4997143;28;20065;-71
2023/05/30 05:28:14;;;;;;;17.83;4.40;;;12.10;99.90;;;;;;4959627;28;206406;-71
2023/05/30 05:30:40;;;;;;;18.08;4.13;;;12.10;99.90;;;;;;5031036;28;20054;-72
2023/05/30 05:33:07;;;;;;;13.77;3.67;;;12.10;99.90;;;;;;4962719;28;208939;-72
2023/05/30 05:35:34;;;;;;;15.98;3.58;;;12.10;99.90;;;;;;5003971;28;20054;-72
2023/05/30 05:38:00;;;;;;;15.75;3.75;;;12.10;99.90;;;;;;4974783;28;208589;-72
2023/05/30 05:40:27;;;;;;;18.00;3.70;;;12.10;99.90;;;;;;4981870;28;163580;-72
2023/05/30 05:42:54;;;;;;;15.07;3.50;;;12.10;99.90;;;;;;5008391;28;20156;-72
2023/05/30 05:45:20;;;;;;;18.13;3.67;;;12.10;99.90;;;;;;4935578;28;210053;-71
2023/05/30 05:47:46;;;;;;;18.33;3.88;;;12.10;99.90;;;;;;4983733;28;20053;-71
2023/05/30 05:50:12;;;;;;;13.80;3.40;;;12.10;99.90;;;;;;4966078;28;223736;-71
2023/05/30 05:52:38;;;;;;;14.38;3.55;;;12.10;99.90;;;;;;4992099;28;20579;-71
2023/05/30 05:55:05;;;;;;;15.25;3.45;;;12.10;99.90;;;;;;4944420;28;211872;-70
2023/05/30 05:57:31;;;;;;;17.67;4.20;;;12.10;99.90;;;;;;4985146;28;20058;-72
2023/05/30 05:59:57;;;;;;;13.75;3.40;;;12.00;99.90;;;;;;4924897;28;220397;-71
2023/05/30 06:02:23;;;;;;;14.13;3.10;;;12.00;99.90;;;;;;4983479;28;20416;-72
2023/05/30 06:04:49;;;;;;;14.20;3.42;;;12.00;99.90;;;;;;4950924;28;223624;-74
2023/05/30 06:07:15;;;;;;;13.88;3.20;;;12.00;99.90;;;;;;4982401;28;20050;-73
2023/05/30 06:09:41;;;;;;;15.63;3.30;;;12.00;99.90;;;;;;4959584;28;222049;-74
2023/05/30 06:12:08;;;;;;;14.98;3.30;;;12.00;99.90;;;;;;5007507;28;20486;-73
2023/05/30 06:14:35;;;;;;;14.82;3.28;;;12.00;99.90;;;;;;4959698;28;207990;-73
2023/05/30 06:17:02;;;;;;;16.58;2.92;;;12.00;99.90;;;;;;4988802;28;20062;-73
2023/05/30 06:19:28;;;;;;;14.82;3.63;;;12.00;99.90;;;;;;4959268;28;210223;-73
2023/05/30 06:21:54;;;;;;;14.95;3.38;;;12.10;99.90;;;;;;4993780;28;20050;-72
2023/05/30 06:24:20;;;;;;;15.20;3.50;;;12.10;99.90;;;;;;4970223;28;248880;-73
2023/05/30 06:26:46;;;;;;;10.90;2.83;;;12.10;99.90;;;;;;4988365;28;20054;-73
2023/05/30 06:29:12;;;;;;;14.90;3.67;;;12.20;99.90;;;;;;4970460;28;204826;-73
2023/05/30 06:31:38;;;;;;;12.80;3.22;;;12.20;99.90;;;;;;4986117;28;20365;-73
2023/05/30 06:34:04;;;;;;;13.98;3.33;;;12.20;99.90;;;;;;4969998;28;220541;-71
2023/05/30 06:36:31;;;;;;;16.27;3.92;;;12.20;99.90;;;;;;4973941;28;20272;-73
2023/05/30 06:38:57;;;;;;;16.88;3.55;;;12.20;99.90;;;;;;4944211;28;212505;-73
2023/05/30 06:41:23;;;;;;;14.52;3.75;;;12.20;99.90;;;;;;5006348;28;20051;-73
2023/05/30 06:43:49;;;;;;;15.77;3.30;;;12.30;99.90;;;;;;4941252;28;208041;-73
2023/05/30 06:46:16;;;;;;;14.32;3.60;;;12.20;99.90;;;;;;5026696;28;20534;-73
2023/05/30 06:48:42;;;;;;;13.68;3.10;;;12.20;99.90;;;;;;4962067;28;208878;-73
2023/05/30 06:51:08;;;;;;;14.18;3.28;;;12.30;99.90;;;;;;5012515;28;20053;-73
2023/05/30 06:53:34;;;;;;;12.90;3.33;;;12.30;99.90;;;;;;4965892;28;206284;-74
2023/05/30 06:56:00;;;;;;;14.68;3.60;;;12.30;99.90;;;;;;5017903;28;20057;-73
2023/05/30 06:58:26;;;;;;;16.30;3.85;;;12.30;99.90;;;;;;4921218;28;211050;-73
2023/05/30 07:00:52;;;;;;;15.02;3.88;;;12.30;99.90;;;;;;5029846;28;20052;-74
2023/05/30 07:03:18;;;;;;;14.90;4.13;;;12.30;99.90;;;;;;4952671;28;206600;-74
2023/05/30 07:05:45;;;;;;;14.88;4.18;;;12.30;99.90;;;;;;5016809;28;20065;-74
2023/05/30 07:08:11;;;;;;;15.40;3.73;;;12.40;99.90;;;;;;4949242;28;216107;-74
2023/05/30 07:10:37;;;;;;;14.13;3.25;;;12.50;99.90;;;;;;5002828;28;20471;-73
2023/05/30 07:13:03;;;;;;;10.50;3.10;;;12.50;99.90;;;;;;4971825;28;208900;-74
2023/05/30 07:15:31;;;;;;;16.45;3.10;;;12.60;99.90;;;;;;5010588;28;28220;-73
2023/05/30 07:17:57;;;;;;;15.18;3.17;;;12.50;99.90;;;;;;5039371;28;20065;-74
2023/05/30 07:20:23;;;;;;;12.82;2.88;;;12.60;99.90;;;;;;4962220;28;206772;-73
2023/05/30 07:22:50;;;;;;;14.80;3.30;;;12.60;99.90;;;;;;4984803;28;20076;-73
2023/05/30 07:25:16;;;;;;;13.25;3.28;;;12.60;99.90;;;;;;4959821;28;209262;-72
2023/05/30 07:27:42;;;;;;;10.60;2.60;;;12.50;99.90;;;;;;5010406;28;20062;-73
2023/05/30 07:30:09;;;;;;;12.68;2.60;;;12.60;99.90;;;;;;4951965;28;208058;-72
2023/05/30 07:32:35;;;;;;;12.68;2.90;;;12.50;99.90;;;;;;5035270;28;20050;-75
2023/05/30 07:35:01;;;;;;;10.98;2.70;;;12.60;99.90;;;;;;4951883;28;209811;-72
2023/05/30 07:37:27;;;;;;;10.85;2.78;;;12.60;99.90;;;;;;4985034;28;20062;-73
2023/05/30 07:39:53;;;;;;;11.55;3.00;;;12.80;99.90;;;;;;4979614;28;207249;-73
2023/05/30 07:42:19;;;;;;;12.32;3.00;;;12.80;99.90;;;;;;5007094;28;20049;-74
2023/05/30 07:44:45;;;;;;;12.02;2.58;;;12.80;99.90;;;;;;4962224;28;206062;-76
2023/05/30 07:47:11;;;;;;;11.10;2.50;;;12.80;99.90;;;;;;4977105;28;20543;-74
2023/05/30 07:49:37;;;;;;;9.00;2.38;;;12.90;99.90;;;;;;4959848;28;211974;-74
2023/05/30 07:52:04;;;;;;;8.55;2.28;;;13.00;99.90;;;;;;5011432;28;20064;-73
2023/05/30 07:54:30;;;;;;;10.13;2.33;;;13.00;99.90;;;;;;4951597;28;207918;-73
2023/05/30 07:56:56;;;;;;;8.93;1.92;;;13.00;99.90;;;;;;4987548;28;20069;-73
2023/05/30 07:59:22;;;;;;;9.13;2.40;;;13.00;99.90;;;;;;4921353;28;238456;-74
2023/05/30 08:01:49;;;;;;;14.00;2.65;;;13.00;99.90;;;;;;4983500;28;20187;-73
2023/05/30 08:04:15;;;;;;;9.00;2.22;;;13.00;99.90;;;;;;4949999;28;212976;-73
2023/05/30 08:06:41;;;;;;;11.70;2.67;;;13.10;99.90;;;;;;4999037;28;20070;-73
2023/05/30 08:09:07;;;;;;;11.57;2.80;;;13.10;99.90;;;;;;4941487;28;210459;-73
2023/05/30 08:11:33;;;;;;;8.30;2.17;;;13.20;99.90;;;;;;4996637;28;20034;-73
2023/05/30 08:13:59;;;;;;;9.35;2.33;;;13.30;99.90;;;;;;4940497;28;209432;-72
2023/05/30 08:16:26;;;;;;;8.70;2.15;;;13.50;99.90;;;;;;4989569;28;20050;-72
2023/05/30 08:18:52;;;;;;;10.77;2.20;;;13.60;99.90;;;;;;4955834;28;206754;-74
2023/05/30 08:21:18;;;;;;;8.52;2.10;;;13.60;99.90;;;;;;5009550;28;20050;-76
2023/05/30 08:23:45;;;;;;;9.30;2.35;;;13.70;99.90;;;;;;4978769;28;206634;-73
2023/05/30 08:26:12;;;;;;;10.10;2.10;;;13.70;99.90;;;;;;4992825;28;20054;-72
2023/05/30 08:28:38;;;;;;;7.85;1.77;;;13.80;99.90;;;;;;4944143;28;207354;-72
2023/05/30 08:31:05;;;;;;;9.13;2.13;;;13.80;99.90;;;;;;5007675;28;20061;-73
2023/05/30 08:33:34;;;;;;;6.90;1.60;;;13.70;99.90;;;;;;4940303;28;215812;-75
2023/05/30 08:36:00;;;;;;;9.90;1.73;;;13.80;99.90;;;;;;5020078;28;20847;-72
2023/05/30 08:38:27;;;;;;;11.45;1.90;;;13.70;99.90;;;;;;4936262;28;211895;-73
2023/05/30 08:40:53;;;;;;;10.27;1.92;;;13.80;99.90;;;;;;5019823;28;20054;-74
2023/05/30 08:43:20;;;;;;;8.32;2.08;;;13.90;99.90;;;;;;4947989;28;206963;-75
2023/05/30 08:45:49;;;;;;;8.32;2.15;;;14.00;99.90;;;;;;5033899;28;20434;-74
2023/05/30 08:48:18;;;;;;;10.65;2.20;;;14.00;99.90;;;;;;4953607;28;209317;-74
2023/05/30 08:50:45;;;;;;;7.45;1.50;;;14.10;99.90;;;;;;5024829;28;20058;-73
2023/05/30 08:53:22;;;;;;;7.93;1.70;;;14.20;99.90;;;;;;4939181;28;206138;-75
2023/05/30 08:55:57;;;;;;;7.53;1.42;;;14.40;99.90;;;;;;5025702;28;20049;-73
2023/05/30 08:58:29;;;;;;;7.10;1.60;;;14.40;99.90;;;;;;4951466;28;212017;-72
2023/05/30 09:00:56;;;;;;;6.82;1.63;;;14.50;99.90;;;;;;5014963;28;20058;-74
2023/05/30 09:03:25;;;;;;;6.90;1.50;;;14.50;99.90;;;;;;4952742;28;210649;-73
2023/05/30 09:05:52;;;;;;;8.98;1.70;;;14.70;99.90;;;;;;5013084;28;20064;-73
2023/05/30 09:08:21;;;;;;;9.18;1.88;;;14.50;99.90;;;;;;4953300;28;209879;-73
2023/05/30 09:10:48;;;;;;;10.82;2.20;;;14.40;99.90;;;;;;5035078;28;20073;-75
2023/05/30 09:13:15;;;;;;;7.60;1.90;;;14.20;99.90;;;;;;4949203;28;209862;-73
2023/05/30 09:15:41;;;;;;;9.07;2.00;;;14.10;99.90;;;;;;5014490;28;20177;-73
2023/05/30 09:18:08;;;;;;;8.93;2.00;;;14.10;99.90;;;;;;4963185;28;211116;-74
2023/05/30 09:20:37;;;;;;;6.53;1.80;;;14.10;99.90;;;;;;5002260;28;20514;-72
2023/05/30 09:23:03;;;;;;;7.85;2.00;;;14.00;99.90;;;;;;4988089;28;207527;-72
2023/05/30 09:25:44;;;;;;;8.23;1.88;;;14.00;99.90;;;;;;4988611;28;206168;-72
2023/05/30 09:28:10;;;;;;;7.15;1.70;;;14.20;99.90;;;;;;4948890;28;206271;-73
2023/05/30 09:30:57;;;;;;;7.15;1.50;;;14.20;99.90;;;;;;5019020;28;20519;-76
2023/05/30 09:33:24;;;;;;;6.30;1.50;;;14.50;99.90;;;;;;4932138;28;210762;-74
2023/05/30 09:35:53;;;;;;;5.57;1.40;;;14.60;99.90;;;;;;5028203;28;20049;-73
2023/05/30 09:38:24;;;;;;;5.27;1.30;;;14.60;99.90;;;;;;4952329;28;214214;-73
2023/05/30 09:41:00;;;;;;;6.28;1.30;;;14.60;99.90;;;;;;5018776;28;20060;-73
2023/05/30 09:43:34;;;;;;;6.18;1.30;;;14.70;99.90;;;;;;4958864;28;213584;-73
2023/05/30 09:46:05;;;;;;;6.63;1.30;;;14.70;99.90;;;;;;5014609;28;20061;-74
2023/05/30 09:48:31;;;;;;;7.13;1.50;;;14.50;99.90;;;;;;4955309;28;207112;-72
2023/05/30 09:51:02;;;;;;;8.10;1.90;;;14.50;99.90;;;;;;5017220;28;20066;-73
2023/05/30 09:53:30;;;;;;;7.40;1.70;;;14.50;99.90;;;;;;4937987;28;210702;-73
2023/05/30 09:55:57;;;;;;;8.02;1.60;;;14.60;99.90;;;;;;5006819;28;20058;-74
2023/05/30 09:58:23;;;;;;;5.93;1.60;;;14.70;99.90;;;;;;4917969;28;213802;-74
2023/05/30 10:00:51;;;;;;;5.78;1.65;;;14.90;99.90;;;;;;5025902;28;20491;-73
2023/05/30 10:03:19;;;;;;;8.07;1.60;;;14.70;99.90;;;;;;4948063;28;207610;-73
2023/05/30 10:05:46;;;;;;;6.80;1.27;;;14.80;99.90;;;;;;4997157;28;20109;-72
2023/05/30 10:08:13;;;;;;;3.92;0.90;;;14.80;99.90;;;;;;4939061;28;205876;-74
2023/05/30 10:10:40;;;;;;;4.03;0.85;;;14.80;99.90;;;;;;5005896;28;20066;-74
2023/05/30 10:13:07;;;;;;;3.35;0.80;;;14.80;99.90;;;;;;4940428;28;210672;-73
2023/05/30 10:15:33;;;;;;;4.43;0.93;;;14.80;99.90;;;;;;5027660;28;20050;-74
2023/05/30 10:18:09;;;;;;;3.50;0.70;;;14.90;99.90;;;;;;5010202;28;20054;-74
2023/05/30 10:20:46;;;;;;;3.92;0.80;;;15.00;99.90;;;;;;4925105;28;60072;-75
2023/05/30 10:23:15;;;;;;;3.47;0.80;;;15.30;99.90;;;;;;4930743;28;217340;-73
2023/05/30 10:25:50;;;;;;;4.32;1.00;;;15.20;99.90;;;;;;5006570;28;20053;-75
2023/05/30 10:28:26;;;;;;;4.03;0.90;;;14.80;99.90;;;;;;4925632;28;218986;-73
2023/05/30 10:30:52;;;;;;;3.63;0.80;;;14.90;99.90;;;;;;5032397;28;20049;-74
2023/05/30 10:33:20;;;;;;;4.18;1.00;;;14.80;99.90;;;;;;4985131;28;207343;-73
2023/05/30 10:35:47;;;;;;;2.75;0.90;;;14.60;99.90;;;;;;4996003;28;20423;-74
2023/05/30 10:38:14;;;;;;;4.10;1.00;;;14.50;99.90;;;;;;4934410;28;207571;-73
2023/05/30 10:41:00;;;;;;;2.58;0.80;;;14.50;99.90;;;;;;5007661;28;20054;-73
2023/05/30 10:44:01;;;;;;;3.85;0.93;;;14.50;99.90;;;;;;4930879;28;209193;-75
2023/05/30 10:46:46;;;;;;;5.13;1.13;;;14.70;99.90;;;;;;5009073;28;20088;-73
2023/05/30 10:49:18;;;;;;;5.90;1.27;;;14.70;99.90;;;;;;4952965;28;213981;-74
2023/05/30 10:52:01;;;;;;;4.43;1.20;;;14.60;99.90;;;;;;5005900;28;20069;-73
2023/05/30 10:54:34;;;;;;;4.15;1.20;;;14.70;99.90;;;;;;4953108;28;207501;-72
2023/05/30 10:57:27;;;;;;;4.93;1.20;;;14.70;99.90;;;;;;4986845;28;20050;-73
2023/05/30 10:59:59;;;;;;;4.57;1.20;;;14.70;99.90;;;;;;4965232;28;209511;-74
2023/05/30 11:02:38;;;;;;;5.63;1.30;;;14.80;99.90;;;;;;4999929;28;20062;-72
2023/05/30 11:05:07;;;;;;;6.13;1.20;;;15.10;99.90;;;;;;4965157;28;203590;-74
2023/05/30 11:07:38;;;;;;;5.07;1.13;;;15.40;99.90;;;;;;4986229;28;20065;-73
2023/05/30 11:10:11;;;;;;;3.28;1.00;;;15.50;99.90;;;;;;4955667;28;216858;-73
2023/05/30 11:12:43;;;;;;;4.70;1.30;;;15.90;99.90;;;;;;4983751;28;20050;-72
2023/05/30 11:15:29;;;;;;;4.20;1.20;;;16.10;99.90;;;;;;4954832;28;216661;-74
2023/05/30 11:17:56;;;;;;;4.65;1.10;;;16.10;99.90;;;;;;4981736;28;20054;-71
2023/05/30 11:20:22;;;;;;;5.95;1.30;;;15.90;99.90;;;;;;4981861;28;202005;-73
2023/05/30 11:23:00;;;;;;;5.07;1.20;;;15.70;99.90;;;;;;5001122;28;20057;-74
2023/05/30 11:25:28;;;;;;;5.47;1.10;;;15.50;99.90;;;;;;4930275;28;153848;-74
2023/05/30 11:28:00;;;;;;;5.63;1.20;;;15.30;99.90;;;;;;4981064;28;20738;-74
2023/05/30 11:30:27;;;;;;;4.90;1.10;;;15.10;99.90;;;;;;4941009;28;185824;-74
2023/05/30 11:32:53;;;;;;;4.30;1.10;;;15.20;99.90;;;;;;5034027;28;20053;-74
2023/05/30 11:35:22;;;;;;;6.10;1.08;;;15.20;99.90;;;;;;4965258;28;207223;-75
2023/05/30 11:37:48;;;;;;;4.80;1.20;;;15.20;99.90;;;;;;5004862;28;20068;-73
2023/05/30 11:40:21;;;;;;;7.78;1.30;;;15.20;99.90;;;;;;4978245;28;206878;-73
2023/05/30 11:42:54;;;;;;;6.38;1.30;;;15.20;99.90;;;;;;4987619;28;20047;-73
2023/05/30 11:45:24;;;;;;;7.25;1.25;;;15.10;99.90;;;;;;4951649;28;212134;-76
2023/05/30 11:47:50;;;;;;;5.30;1.30;;;15.10;99.90;;;;;;4985900;28;20042;-73
2023/05/30 11:50:19;;;;;;;5.40;1.33;;;15.10;99.90;;;;;;4966417;28;207927;-74
2023/05/30 11:52:45;;;;;;;6.75;1.50;;;15.30;99.90;;;;;;4983658;28;20054;-74
2023/05/30 11:55:11;;;;;;;4.95;1.23;;;15.50;99.90;;;;;;4956066;28;208132;-76
2023/05/30 11:57:38;;;;;;;5.90;1.40;;;15.50;99.90;;;;;;4970497;28;20574;-74
2023/05/30 12:00:11;;;;;;;5.47;1.40;;;15.60;99.90;;;;;;4947911;28;206857;-72
2023/05/30 12:02:38;;;;;;;5.88;1.25;;;15.60;99.90;;;;;;5036341;28;20049;-74
2023/05/30 12:05:05;;;;;;;8.23;1.30;;;15.50;99.90;;;;;;4958896;28;206475;-73
2023/05/30 12:07:34;;;;;;;5.18;1.50;;;15.60;99.90;;;;;;4987537;28;20058;-71
2023/05/30 12:10:01;;;;;;;5.45;1.40;;;15.70;99.90;;;;;;4963323;28;209464;-73
2023/05/30 12:12:27;;;;;;;6.18;1.40;;;15.80;99.90;;;;;;4985950;28;20061;-73
2023/05/30 12:14:56;;;;;;;5.03;1.33;;;15.80;99.90;;;;;;4966135;28;208100;-72
2023/05/30 12:17:24;;;;;;;4.43;1.20;;;15.80;99.90;;;;;;4988893;28;20057;-73
2023/05/30 12:19:55;;;;;;;4.80;1.33;;;15.80;99.90;;;;;;4963382;28;212460;-74
2023/05/30 12:22:23;;;;;;;5.93;1.45;;;15.90;99.90;;;;;;5007103;28;20045;-74
2023/05/30 12:24:49;;;;;;;5.07;1.17;;;15.90;99.90;;;;;;4951627;28;208478;-73
2023/05/30 12:27:17;;;;;;;6.28;1.30;;;16.10;99.90;;;;;;5003199;28;20057;-72
2023/05/30 12:29:44;;;;;;;6.10;1.40;;;16.20;99.90;;;;;;4963487;28;210359;-73
2023/05/30 12:32:10;;;;;;;5.88;1.38;;;16.30;99.90;;;;;;4980512;28;20085;-72
2023/05/30 12:34:47;;;;;;;6.45;1.50;;;16.20;99.90;;;;;;4977762;28;206128;-74
2023/05/30 12:37:16;;;;;;;5.32;1.30;;;16.30;99.90;;;;;;4987807;28;20054;-72
2023/05/30 12:39:49;;;;;;;5.32;1.38;;;16.20;99.90;;;;;;4980668;28;163880;-73
2023/05/30 12:42:21;;;;;;;5.97;1.50;;;16.20;99.90;;;;;;4987128;28;20054;-73